Time;durP1;ratioP1;P1;durP2;ratioP2;P2;SDS_P1;SDS_P2;PMS_P1;PMS_P2;Temp;Humidity;BMP_temperature;BMP_pressure;BME280_temperature;BME280_humidity;BME280_pressure;Samples;Min_cycle;Max_cycle;Signal;HPM_P1;HPM_P2
2023/07/17 04:06:47;;;;;;;;;19.00;19.00;;;;;;;;6287768;39;9999535;-51
2023/07/17 12:04:45;;;;;;;;;22.00;21.00;;;;;;;;6488437;31;9006;-58
2023/07/17 12:10:48;;;;;;;;;21.25;19.75;;;;;;;;6486761;47;8972;-58
2023/07/17 12:16:50;;;;;;;;;20.25;19.50;;;;;;;;6489710;39;8870;-57
2023/07/17 12:22:55;;;;;;;;;21.75;21.00;;;;;;;;6487359;39;8977;-59
2023/07/17 12:28:58;;;;;;;;;21.25;19.00;;;;;;;;6487873;39;9905;-60
2023/07/17 12:35:01;;;;;;;;;21.50;20.50;;;;;;;;6517986;31;8958;-58
2023/07/17 12:41:03;;;;;;;;;21.25;21.25;;;;;;;;6490345;39;8924;-58
2023/07/17 12:47:07;;;;;;;;;21.25;21.25;;;;;;;;6490785;39;9014;-59
2023/07/17 12:53:10;;;;;;;;;21.25;20.25;;;;;;;;6490289;46;9042;-59
2023/07/17 12:59:12;;;;;;;;;15.50;15.50;;;;;;;;6489280;46;8958;-57
2023/07/17 13:05:15;;;;;;;;;21.50;20.75;;;;;;;;6487929;39;8898;-58
2023/07/17 13:11:20;;;;;;;;;19.50;18.50;;;;;;;;6489718;39;8924;-57
2023/07/17 13:17:23;;;;;;;;;18.00;18.00;;;;;;;;6506254;31;8942;-58
2023/07/17 13:23:27;;;;;;;;;14.50;14.00;;;;;;;;6490888;46;8914;-58
2023/07/17 13:29:29;;;;;;;;;17.25;15.50;;;;;;;;6490399;39;8914;-58
2023/07/17 13:35:31;;;;;;;;;19.75;19.00;;;;;;;;6491651;31;9549;-59
2023/07/17 13:41:47;;;;;;;;;18.25;18.25;;;;;;;;6490629;39;8903;-58
2023/07/17 13:47:50;;;;;;;;;17.25;17.25;;;;;;;;6489858;46;8982;-58
2023/07/17 13:53:57;;;;;;;;;19.75;19.75;;;;;;;;6492576;31;8966;-58
2023/07/17 14:00:00;;;;;;;;;24.25;22.50;;;;;;;;6490843;39;9100;-58
2023/07/17 14:06:06;;;;;;;;;18.25;17.00;;;;;;;;6490550;39;8970;-58
2023/07/17 14:12:13;;;;;;;;;20.25;19.00;;;;;;;;6491848;31;9011;-59
2023/07/17 14:18:15;;;;;;;;;17.25;17.25;;;;;;;;6490837;31;8879;-58
2023/07/17 14:24:22;;;;;;;;;11.75;11.75;;;;;;;;6492227;39;8945;-63
2023/07/17 14:30:30;;;;;;;;;18.00;18.00;;;;;;;;6490769;39;9013;-58
2023/07/17 14:36:33;;;;;;;;;17.25;17.00;;;;;;;;6491810;39;8996;-58
2023/07/17 14:42:37;;;;;;;;;19.50;19.50;;;;;;;;6490323;46;8890;-59
2023/07/17 14:48:39;;;;;;;;;16.00;16.00;;;;;;;;6490618;39;8942;-59
2023/07/17 14:54:42;;;;;;;;;20.00;19.00;;;;;;;;6490511;39;9745;-59
2023/07/17 15:00:46;;;;;;;;;16.00;16.00;;;;;;;;6489990;31;8902;-58
2023/07/17 15:06:48;;;;;;;;;15.80;14.80;;;;;;;;6129601;31;10000618;-59
2023/07/17 15:12:50;;;;;;;;;20.50;19.00;;;;;;;;6489833;39;8915;-59
2023/07/17 15:18:53;;;;;;;;;16.00;15.75;;;;;;;;6489274;39;8909;-57
2023/07/17 15:24:55;;;;;;;;;20.50;19.00;;;;;;;;6490271;31;8965;-59
2023/07/17 15:30:57;;;;;;;;;20.00;19.50;;;;;;;;6490196;39;8869;-59
2023/07/17 15:37:01;;;;;;;;;20.00;19.00;;;;;;;;6490524;39;8899;-57
2023/07/17 15:43:03;;;;;;;;;18.75;18.75;;;;;;;;6488587;46;8906;-58
2023/07/17 15:49:07;;;;;;;;;19.00;18.00;;;;;;;;6490492;39;8909;-59
2023/07/17 15:55:11;;;;;;;;;17.67;16.00;;;;;;;;6490967;31;8861;-58
2023/07/17 16:01:13;;;;;;;;;17.75;16.50;;;;;;;;6488488;39;9015;-59
2023/07/17 16:07:18;;;;;;;;;17.50;17.25;;;;;;;;6491032;39;9528;-59
2023/07/17 16:13:21;;;;;;;;;17.50;16.00;;;;;;;;6536267;36;8993;-58
2023/07/17 16:19:24;;;;;;;;;21.50;21.00;;;;;;;;6490744;39;9020;-58
2023/07/17 16:25:26;;;;;;;;;18.00;17.00;;;;;;;;6491293;39;8964;-58
2023/07/17 16:31:28;;;;;;;;;16.50;16.25;;;;;;;;6490068;31;8960;-54
2023/07/17 16:37:31;;;;;;;;;15.25;15.25;;;;;;;;6491122;39;8903;-57
2023/07/17 16:43:33;;;;;;;;;17.75;17.25;;;;;;;;6489809;46;8871;-53
2023/07/17 16:49:37;;;;;;;;;15.00;13.50;;;;;;;;6490234;46;8978;-53
2023/07/17 16:55:39;;;;;;;;;15.00;12.75;;;;;;;;6491016;39;8840;-55
2023/07/17 17:01:43;;;;;;;;;14.50;12.50;;;;;;;;6489501;31;8991;-55
2023/07/17 17:07:46;;;;;;;;;16.00;14.00;;;;;;;;6492127;39;8869;-54
2023/07/17 17:13:49;;;;;;;;;17.25;15.00;;;;;;;;6489531;46;8860;-54
2023/07/17 17:19:52;;;;;;;;;21.25;18.00;;;;;;;;6490006;39;8940;-55
2023/07/17 17:25:54;;;;;;;;;17.50;17.00;;;;;;;;6490582;39;9087;-50
2023/07/17 17:31:57;;;;;;;;;12.75;12.25;;;;;;;;6490226;39;8908;-53
2023/07/17 17:37:59;;;;;;;;;19.00;18.00;;;;;;;;6488964;46;8871;-54
2023/07/17 17:44:01;;;;;;;;;19.25;19.25;;;;;;;;6488595;46;8958;-54
2023/07/17 17:50:04;;;;;;;;;23.25;20.75;;;;;;;;6489434;39;8872;-55
2023/07/17 17:56:06;;;;;;;;;19.25;18.50;;;;;;;;6489648;39;8943;-52
2023/07/17 18:02:09;;;;;;;;;20.00;17.00;;;;;;;;6488882;39;8916;-55
2023/07/17 18:08:11;;;;;;;;;22.25;21.00;;;;;;;;6487588;39;8943;-53
2023/07/17 18:14:14;;;;;;;;;25.50;23.25;;;;;;;;6486904;46;8971;-54
2023/07/17 18:20:18;;;;;;;;;25.00;24.00;;;;;;;;6487479;46;8927;-55
2023/07/17 18:26:20;;;;;;;;;21.50;21.50;;;;;;;;6488042;39;8872;-54
2023/07/17 18:32:24;;;;;;;;;25.00;21.50;;;;;;;;6487216;31;8900;-54
2023/07/17 18:38:26;;;;;;;;;22.00;22.00;;;;;;;;6487498;31;8911;-50
2023/07/17 18:44:29;;;;;;;;;23.25;23.25;;;;;;;;6487061;39;8979;-55
2023/07/17 18:50:34;;;;;;;;;25.75;24.25;;;;;;;;6488388;31;8864;-53
2023/07/17 18:56:37;;;;;;;;;28.25;26.00;;;;;;;;6486823;39;8935;-54
2023/07/17 19:02:40;;;;;;;;;21.50;21.50;;;;;;;;6486401;46;8836;-53
2023/07/17 19:08:44;;;;;;;;;19.50;18.25;;;;;;;;6487785;46;8975;-53
2023/07/17 19:14:47;;;;;;;;;22.25;22.25;;;;;;;;6488054;39;8863;-53
2023/07/17 19:20:50;;;;;;;;;20.00;18.00;;;;;;;;6487907;39;8852;-54
2023/07/17 19:26:52;;;;;;;;;18.25;16.75;;;;;;;;6488351;39;8947;-53
2023/07/17 19:32:55;;;;;;;;;22.25;18.75;;;;;;;;6487496;46;8963;-53
2023/07/17 19:38:59;;;;;;;;;18.25;17.00;;;;;;;;6488758;39;8915;-57
2023/07/17 19:45:05;;;;;;;;;18.75;18.50;;;;;;;;6486759;31;9599;-55
2023/07/17 19:51:07;;;;;;;;;18.00;18.00;;;;;;;;6486007;39;8876;-53
2023/07/17 19:57:10;;;;;;;;;18.00;18.00;;;;;;;;6487424;31;9031;-50
2023/07/17 20:03:14;;;;;;;;;19.25;17.00;;;;;;;;6487048;31;8840;-52
2023/07/17 20:09:20;;;;;;;;;16.00;15.50;;;;;;;;6488005;39;8887;-55
2023/07/17 20:15:23;;;;;;;;;21.00;19.00;;;;;;;;6486461;46;8864;-52
2023/07/17 20:21:25;;;;;;;;;20.25;18.50;;;;;;;;6485820;47;8868;-55
2023/07/17 20:27:29;;;;;;;;;21.50;21.50;;;;;;;;6533244;36;9940;-53
2023/07/17 20:33:32;;;;;;;;;18.25;17.75;;;;;;;;6487029;39;9002;-53
2023/07/17 20:39:36;;;;;;;;;17.75;16.50;;;;;;;;6487889;39;8847;-53
2023/07/17 20:45:47;;;;;;;;;16.75;16.75;;;;;;;;6486832;39;8863;-55
2023/07/17 20:51:51;;;;;;;;;20.50;19.25;;;;;;;;6487272;39;8836;-53
2023/07/17 20:57:53;;;;;;;;;19.50;19.50;;;;;;;;6486388;39;8978;-53
2023/07/17 21:03:58;;;;;;;;;16.75;15.75;;;;;;;;6488121;39;8869;-55
2023/07/17 21:10:00;;;;;;;;;18.50;18.00;;;;;;;;6488860;39;8907;-54
2023/07/17 21:16:04;;;;;;;;;15.25;15.00;;;;;;;;6487266;39;8844;-52
2023/07/17 21:22:06;;;;;;;;;19.00;18.00;;;;;;;;6489393;39;9888;-53
2023/07/17 21:28:10;;;;;;;;;18.25;15.75;;;;;;;;6488628;39;9666;-53
2023/07/17 21:34:12;;;;;;;;;19.25;18.50;;;;;;;;6488401;46;9115;-57
2023/07/17 21:40:15;;;;;;;;;20.00;18.50;;;;;;;;6488975;39;8868;-49
2023/07/17 21:46:17;;;;;;;;;23.50;21.00;;;;;;;;6488671;39;8934;-54
2023/07/17 21:52:19;;;;;;;;;17.25;16.00;;;;;;;;6488824;39;8930;-55
2023/07/17 21:58:22;;;;;;;;;17.25;17.00;;;;;;;;6488427;39;9778;-50
2023/07/17 22:04:24;;;;;;;;;19.00;19.00;;;;;;;;6488107;46;8942;-53
2023/07/17 22:10:27;;;;;;;;;20.25;19.50;;;;;;;;6487937;31;8885;-49
2023/07/17 22:16:30;;;;;;;;;17.75;17.75;;;;;;;;6487592;46;8844;-51
2023/07/17 22:22:32;;;;;;;;;21.25;20.25;;;;;;;;6488007;46;8832;-53
2023/07/17 22:28:34;;;;;;;;;16.00;16.00;;;;;;;;6308088;31;10001555;-54
2023/07/17 22:34:37;;;;;;;;;14.25;13.25;;;;;;;;6487469;31;8928;-50
2023/07/17 22:40:43;;;;;;;;;21.75;20.75;;;;;;;;6487948;39;9558;-52
2023/07/17 22:46:48;;;;;;;;;18.25;18.25;;;;;;;;6487549;39;9040;-54
2023/07/17 22:52:54;;;;;;;;;19.25;18.50;;;;;;;;6488261;46;8864;-54
2023/07/17 22:58:59;;;;;;;;;21.75;20.50;;;;;;;;6487717;39;8900;-56
2023/07/17 23:05:04;;;;;;;;;22.50;20.50;;;;;;;;6487971;46;8994;-51
2023/07/17 23:11:07;;;;;;;;;20.00;20.00;;;;;;;;6487371;39;9043;-49
2023/07/17 23:17:10;;;;;;;;;21.00;19.00;;;;;;;;6487986;39;8922;-51
2023/07/17 23:23:15;;;;;;;;;22.25;19.50;;;;;;;;6487746;31;8930;-54
2023/07/17 23:29:17;;;;;;;;;20.75;20.25;;;;;;;;6486756;46;8916;-53
2023/07/17 23:35:20;;;;;;;;;22.75;20.50;;;;;;;;6487787;39;9027;-52
2023/07/17 23:41:22;;;;;;;;;21.25;21.25;;;;;;;;6487996;39;8900;-56
2023/07/17 23:47:25;;;;;;;;;21.00;21.00;;;;;;;;6487326;39;9646;-50
2023/07/17 23:53:28;;;;;;;;;21.75;21.75;;;;;;;;6488486;39;8888;-57
2023/07/17 23:59:30;;;;;;;;;22.25;21.25;;;;;;;;6487900;31;8923;-53
